Time;durP1;ratioP1;P1;durP2;ratioP2;P2;SDS_P1;SDS_P2;PMS_P1;PMS_P2;Temp;Humidity;BMP_temperature;BMP_pressure;BME280_temperature;BME280_humidity;BME280_pressure;Samples;Min_cycle;Max_cycle;Signal;HPM_P1;HPM_P2
2023/04/27 00:01:13;;;;;;;;;;;18.30;67.70;;;;;;4975029;28;1347;-72
2023/04/27 00:03:39;;;;;;;;;;;18.30;67.70;;;;;;4992767;28;1348;-71
2023/04/27 00:06:04;;;;;;;;;;;18.30;67.70;;;;;;4992171;28;923;-72
2023/04/27 00:08:30;;;;;;;;;;;18.30;67.70;;;;;;4994479;28;1910;-71
2023/04/27 00:10:55;;;;;;;;;;;18.30;67.70;;;;;;4992928;28;1435;-72
2023/04/27 00:13:21;;;;;;;;;;;18.30;67.70;;;;;;4995460;28;1243;-73
2023/04/27 00:15:46;;;;;;;;;;;18.30;67.70;;;;;;4990545;28;1062;-71
2023/04/27 00:18:12;;;;;;;;;;;18.30;67.70;;;;;;4987015;28;892;-71
2023/04/27 00:20:37;;;;;;;;;;;18.30;67.70;;;;;;4992620;28;852;-71
2023/04/27 00:23:03;;;;;;;;;;;18.30;67.80;;;;;;4997453;28;1450;-72
2023/04/27 00:25:28;;;;;;;;;;;18.30;67.70;;;;;;4999021;28;890;-71
2023/04/27 00:27:53;;;;;;;;;;;18.30;68.50;;;;;;4992815;28;1956;-72
2023/04/27 00:30:19;;;;;;;;;;;18.30;67.70;;;;;;4992376;28;1049;-71
2023/04/27 00:32:45;;;;;;;;;;;18.30;67.70;;;;;;4987490;28;843;-72
2023/04/27 00:35:10;;;;;;;;;;;18.30;67.80;;;;;;4988950;28;1261;-72
2023/04/27 00:37:36;;;;;;;;;;;18.30;67.70;;;;;;4993045;28;1321;-71
2023/04/27 00:40:03;;;;;;;;;;;18.30;67.80;;;;;;4998167;28;1242;-71
2023/04/27 00:42:28;;;;;;;;;;;18.30;67.80;;;;;;4999557;28;1345;-71
2023/04/27 00:44:55;;;;;;;;;;;18.30;67.80;;;;;;4997404;28;1265;-71
2023/04/27 00:47:21;;;;;;;;;;;18.30;67.80;;;;;;4994734;28;1971;-71
2023/04/27 00:49:46;;;;;;;;;;;18.30;67.70;;;;;;4997614;28;826;-71
2023/04/27 00:52:12;;;;;;;;;;;18.30;67.80;;;;;;4994590;28;1175;-71
2023/04/27 00:54:37;;;;;;;;;;;18.30;67.80;;;;;;4994491;28;1745;-72
2023/04/27 00:57:03;;;;;;;;;;;18.30;67.80;;;;;;4997589;28;1278;-71
2023/04/27 00:59:28;;;;;;;;;;;18.30;67.80;;;;;;4977341;28;1444;-72
2023/04/27 01:01:54;;;;;;;;;;;18.30;67.80;;;;;;4992261;28;1327;-72
2023/04/27 01:04:20;;;;;;;;;;;18.30;67.80;;;;;;4993147;28;1459;-72
2023/04/27 01:06:45;;;;;;;;;;;18.30;67.80;;;;;;4995093;28;1969;-72
2023/04/27 01:09:11;;;;;;;;;;;18.30;67.80;;;;;;4976411;28;1247;-72
2023/04/27 01:11:36;;;;;;;;;;;18.30;67.80;;;;;;4986643;28;796;-72
2023/04/27 01:14:02;;;;;;;;;;;18.30;67.90;;;;;;4993089;28;1356;-72
2023/04/27 01:16:28;;;;;;;;;;;18.30;67.80;;;;;;4992968;28;1194;-72
2023/04/27 01:18:53;;;;;;;;;;;18.30;67.80;;;;;;4991043;28;813;-72
2023/04/27 01:21:19;;;;;;;;;;;18.30;67.90;;;;;;4997165;28;1188;-72
2023/04/27 01:23:44;;;;;;;;;;;18.30;67.80;;;;;;4993467;28;1251;-71
2023/04/27 01:26:12;;;;;;;;;;;18.30;67.90;;;;;;4992472;28;1340;-71
2023/04/27 01:28:37;;;;;;;;;;;18.30;67.80;;;;;;4991513;28;1956;-72
2023/04/27 01:31:03;;;;;;;;;;;18.30;67.80;;;;;;4992185;28;899;-72
2023/04/27 01:33:28;;;;;;;;;;;18.30;67.90;;;;;;4996042;28;1385;-72
2023/04/27 01:35:54;;;;;;;;;;;18.30;67.90;;;;;;4998771;28;853;-71
2023/04/27 01:38:19;;;;;;;;;;;18.30;67.90;;;;;;4996998;28;852;-71
2023/04/27 01:40:45;;;;;;;;;;;18.30;67.90;;;;;;4997133;28;879;-71
2023/04/27 01:43:10;;;;;;;;;;;18.30;67.90;;;;;;4997135;28;1229;-72
2023/04/27 01:45:36;;;;;;;;;;;18.30;67.90;;;;;;4993704;28;999;-71
2023/04/27 01:48:01;;;;;;;;;;;18.30;67.90;;;;;;4997327;28;2004;-71
2023/04/27 01:50:27;;;;;;;;;;;18.30;67.90;;;;;;4995651;28;812;-71
2023/04/27 01:52:52;;;;;;;;;;;18.30;67.90;;;;;;4991431;28;753;-72
2023/04/27 01:55:18;;;;;;;;;;;18.30;67.90;;;;;;4992837;28;1268;-71
2023/04/27 01:57:43;;;;;;;;;;;18.30;67.90;;;;;;4992917;28;844;-71
2023/04/27 02:00:09;;;;;;;;;;;18.30;67.90;;;;;;4994242;28;1189;-71
2023/04/27 02:02:34;;;;;;;;;;;18.20;67.80;;;;;;4997464;28;841;-71
2023/04/27 02:05:00;;;;;;;;;;;18.30;67.90;;;;;;4996724;28;1344;-71
2023/04/27 02:07:26;;;;;;;;;;;18.30;67.90;;;;;;4990561;28;1968;-71
2023/04/27 02:09:51;;;;;;;;;;;18.30;67.90;;;;;;4995590;28;958;-71
2023/04/27 02:12:17;;;;;;;;;;;18.30;67.90;;;;;;4997951;28;796;-71
2023/04/27 02:14:42;;;;;;;;;;;18.30;67.90;;;;;;4997643;28;1316;-71
2023/04/27 02:17:08;;;;;;;;;;;18.30;67.90;;;;;;4996228;28;890;-71
2023/04/27 02:19:33;;;;;;;;;;;18.30;67.90;;;;;;4999264;28;974;-71
2023/04/27 02:21:59;;;;;;;;;;;18.30;67.90;;;;;;5002573;28;1266;-72
2023/04/27 02:24:25;;;;;;;;;;;18.20;67.90;;;;;;4999628;28;1290;-72
2023/04/27 02:26:50;;;;;;;;;;;18.20;67.90;;;;;;5000557;28;1956;-72
2023/04/27 02:29:16;;;;;;;;;;;18.20;67.90;;;;;;4993919;28;890;-71
2023/04/27 02:31:41;;;;;;;;;;;18.20;67.90;;;;;;4992552;28;831;-72
2023/04/27 02:34:07;;;;;;;;;;;18.20;67.90;;;;;;4992936;28;1289;-71
2023/04/27 02:36:32;;;;;;;;;;;18.20;67.90;;;;;;4997020;28;962;-71
2023/04/27 02:38:58;;;;;;;;;;;18.20;68.00;;;;;;4996565;28;895;-71
2023/04/27 02:41:26;;;;;;;;;;;18.20;67.90;;;;;;4994676;28;979;-72
2023/04/27 02:43:51;;;;;;;;;;;18.20;67.90;;;;;;4991987;28;1462;-71
2023/04/27 02:46:17;;;;;;;;;;;18.20;67.90;;;;;;4993500;28;1034;-72
2023/04/27 02:48:42;;;;;;;;;;;18.20;67.90;;;;;;4999324;28;1906;-72
2023/04/27 02:51:08;;;;;;;;;;;18.20;67.90;;;;;;5003086;28;1304;-72
2023/04/27 02:53:33;;;;;;;;;;;18.20;68.00;;;;;;4995307;28;1610;-69
2023/04/27 02:55:59;;;;;;;;;;;18.20;67.90;;;;;;4992559;28;1286;-71
2023/04/27 02:58:25;;;;;;;;;;;18.20;67.90;;;;;;5000047;28;1286;-70
2023/04/27 03:00:54;;;;;;;;;;;18.20;68.00;;;;;;4993177;28;1320;-72
2023/04/27 03:03:20;;;;;;;;;;;18.20;68.00;;;;;;4977689;28;1685;-73
2023/04/27 03:05:46;;;;;;;;;;;18.20;68.00;;;;;;4995043;28;1214;-73
2023/04/27 03:08:11;;;;;;;;;;;18.20;68.00;;;;;;4995282;28;1918;-72
2023/04/27 03:10:37;;;;;;;;;;;18.20;68.70;;;;;;4993966;28;1066;-72
2023/04/27 03:13:02;;;;;;;;;;;18.20;68.00;;;;;;4997201;28;1283;-73
2023/04/27 03:15:28;;;;;;;;;;;18.20;68.00;;;;;;4980998;28;1176;-73
2023/04/27 03:17:53;;;;;;;;;;;18.20;68.00;;;;;;4992506;28;977;-73
2023/04/27 03:20:20;;;;;;;;;;;18.20;68.00;;;;;;4995843;28;1359;-73
2023/04/27 03:22:45;;;;;;;;;;;18.20;68.00;;;;;;4997570;28;840;-72
2023/04/27 03:25:11;;;;;;;;;;;18.20;68.00;;;;;;4997961;28;1196;-71
2023/04/27 03:27:36;;;;;;;;;;;18.20;68.00;;;;;;4993467;28;1899;-71
2023/04/27 03:30:03;;;;;;;;;;;18.20;68.00;;;;;;4990764;28;1287;-71
2023/04/27 03:32:28;;;;;;;;;;;18.20;68.00;;;;;;5009103;28;1474;-73
2023/04/27 03:34:55;;;;;;;;;;;18.20;68.00;;;;;;4991197;28;1376;-73
2023/04/27 03:37:20;;;;;;;;;;;18.20;68.00;;;;;;4998603;28;820;-73
2023/04/27 03:39:46;;;;;;;;;;;18.20;68.00;;;;;;4994446;28;852;-72
2023/04/27 03:42:11;;;;;;;;;;;18.20;68.00;;;;;;4993285;28;1337;-72
2023/04/27 03:44:37;;;;;;;;;;;18.20;68.00;;;;;;4995732;28;1247;-73
2023/04/27 03:47:07;;;;;;;;;;;18.20;68.00;;;;;;4993776;28;1910;-72
2023/04/27 03:49:32;;;;;;;;;;;18.20;68.00;;;;;;4994225;28;859;-72
2023/04/27 03:51:58;;;;;;;;;;;18.20;68.00;;;;;;4996109;28;1313;-72
2023/04/27 03:54:23;;;;;;;;;;;18.20;68.10;;;;;;4995109;28;1252;-73
2023/04/27 03:56:49;;;;;;;;;;;18.20;68.00;;;;;;4992469;28;1250;-73
2023/04/27 03:59:15;;;;;;;;;;;18.20;68.00;;;;;;4986016;28;856;-73
2023/04/27 04:01:40;;;;;;;;;;;18.20;68.10;;;;;;4976373;28;1243;-73
2023/04/27 04:04:06;;;;;;;;;;;18.20;68.10;;;;;;4989856;28;1230;-71
2023/04/27 04:06:31;;;;;;;;;;;18.20;68.10;;;;;;4993953;28;952;-71
2023/04/27 04:08:57;;;;;;;;;;;18.20;68.80;;;;;;4990236;28;1969;-71
2023/04/27 04:11:22;;;;;;;;;;;18.20;68.00;;;;;;4994083;28;852;-71
2023/04/27 04:13:48;;;;;;;;;;;18.20;68.00;;;;;;4995002;28;1354;-71
2023/04/27 04:16:13;;;;;;;;;;;18.20;67.90;;;;;;4994000;28;859;-72
2023/04/27 04:18:39;;;;;;;;;;;18.20;67.80;;;;;;4995592;28;835;-72
2023/04/27 04:21:04;;;;;;;;;;;18.30;67.70;;;;;;5000201;28;1461;-72
2023/04/27 04:23:31;;;;;;;;;;;18.30;67.60;;;;;;4990087;28;1250;-73
2023/04/27 04:25:57;;;;;;;;;;;18.30;67.60;;;;;;4977397;28;1570;-72
2023/04/27 04:28:22;;;;;;;;;;;18.30;67.50;;;;;;4995235;28;1953;-72
2023/04/27 04:30:48;;;;;;;;;;;18.30;67.40;;;;;;4979515;28;1276;-73
2023/04/27 04:33:14;;;;;;;;;;;18.40;67.40;;;;;;4990013;28;1225;-72
2023/04/27 04:35:40;;;;;;;;;;;18.40;67.30;;;;;;4989116;28;1470;-72
2023/04/27 04:38:06;;;;;;;;;;;18.40;67.10;;;;;;4997557;28;808;-72
2023/04/27 04:40:31;;;;;;;;;;;18.40;67.00;;;;;;4994139;28;831;-71
2023/04/27 04:42:57;;;;;;;;;;;18.50;67.10;;;;;;4989325;28;1338;-71
2023/04/27 04:45:22;;;;;;;;;;;18.50;66.90;;;;;;4995955;28;1807;-70
2023/04/27 04:47:48;;;;;;;;;;;18.50;66.90;;;;;;4997118;28;1961;-70
2023/04/27 04:50:13;;;;;;;;;;;18.50;66.80;;;;;;4979382;28;1575;-71
2023/04/27 04:52:39;;;;;;;;;;;18.50;66.70;;;;;;4993008;28;1022;-71
2023/04/27 04:55:05;;;;;;;;;;;18.50;66.70;;;;;;4997669;28;1515;-71
2023/04/27 04:57:30;;;;;;;;;;;18.50;66.60;;;;;;4991184;28;1211;-71
2023/04/27 04:59:56;;;;;;;;;;;18.60;67.40;;;;;;4993832;28;889;-70
2023/04/27 05:02:21;;;;;;;;;;;18.60;66.60;;;;;;4992847;28;1061;-71
2023/04/27 05:04:47;;;;;;;;;;;18.60;66.50;;;;;;4996119;28;1354;-73
2023/04/27 05:07:12;;;;;;;;;;;18.60;66.50;;;;;;4991928;28;1964;-71
2023/04/27 05:09:38;;;;;;;;;;;18.60;66.40;;;;;;4999219;28;793;-72
2023/04/27 05:12:04;;;;;;;;;;;18.60;66.40;;;;;;4993814;28;922;-72
2023/04/27 05:14:29;;;;;;;;;;;18.60;66.40;;;;;;4993418;28;1263;-72
2023/04/27 05:16:55;;;;;;;;;;;18.60;66.40;;;;;;4994476;28;887;-72
2023/04/27 05:19:20;;;;;;;;;;;18.60;66.30;;;;;;4997555;28;843;-72
2023/04/27 05:21:46;;;;;;;;;;;18.60;66.30;;;;;;4995186;28;876;-72
2023/04/27 05:24:11;;;;;;;;;;;18.60;66.30;;;;;;4991750;28;1339;-72
2023/04/27 05:26:37;;;;;;;;;;;18.60;66.30;;;;;;4993994;28;832;-72
2023/04/27 05:29:02;;;;;;;;;;;18.60;66.30;;;;;;4974815;28;1964;-72
2023/04/27 05:31:28;;;;;;;;;;;18.60;66.30;;;;;;4981316;28;1429;-72
2023/04/27 05:33:53;;;;;;;;;;;18.60;66.30;;;;;;4991993;28;1361;-71
2023/04/27 05:36:19;;;;;;;;;;;18.60;66.30;;;;;;4993034;28;946;-71
2023/04/27 05:38:44;;;;;;;;;;;18.60;66.30;;;;;;4997288;28;1288;-71
2023/04/27 05:41:10;;;;;;;;;;;18.60;66.30;;;;;;4997393;28;845;-71
2023/04/27 05:43:37;;;;;;;;;;;18.60;66.30;;;;;;4999654;28;1383;-71
2023/04/27 05:46:05;;;;;;;;;;;18.60;66.30;;;;;;4994478;28;879;-71
2023/04/27 05:48:31;;;;;;;;;;;18.60;66.40;;;;;;4995611;28;1894;-72
2023/04/27 05:51:00;;;;;;;;;;;18.60;66.40;;;;;;4997943;28;832;-72
2023/04/27 05:53:26;;;;;;;;;;;18.60;66.40;;;;;;4992345;28;1240;-72
2023/04/27 05:55:51;;;;;;;;;;;18.60;66.40;;;;;;4987203;28;983;-72
2023/04/27 05:58:17;;;;;;;;;;;18.60;66.40;;;;;;4996063;28;871;-71
2023/04/27 06:00:42;;;;;;;;;;;18.60;66.40;;;;;;4996690;28;791;-72
2023/04/27 06:03:08;;;;;;;;;;;18.60;66.50;;;;;;4992749;28;1260;-71
2023/04/27 06:05:33;;;;;;;;;;;18.60;66.50;;;;;;4990198;28;1487;-71
2023/04/27 06:07:59;;;;;;;;;;;18.60;66.50;;;;;;4993756;28;1981;-72
2023/04/27 06:10:24;;;;;;;;;;;18.60;66.50;;;;;;4986336;28;1891;-70
2023/04/27 06:12:50;;;;;;;;;;;18.50;66.50;;;;;;4990711;28;1784;-71
2023/04/27 06:15:15;;;;;;;;;;;18.50;66.50;;;;;;4987235;28;1414;-71
2023/04/27 06:17:42;;;;;;;;;;;18.50;66.60;;;;;;4991545;28;1120;-69
2023/04/27 06:20:08;;;;;;;;;;;18.50;66.60;;;;;;4988221;28;1033;-72
2023/04/27 06:22:36;;;;;;;;;;;18.50;66.60;;;;;;4998569;28;807;-72
2023/04/27 06:25:02;;;;;;;;;;;18.50;66.60;;;;;;4977847;28;1367;-71
2023/04/27 06:27:27;;;;;;;;;;;18.50;66.60;;;;;;4992735;28;1902;-71
2023/04/27 06:29:53;;;;;;;;;;;18.50;66.60;;;;;;4995511;28;918;-70
2023/04/27 06:32:18;;;;;;;;;;;18.50;66.70;;;;;;4997998;28;1313;-71
2023/04/27 06:34:44;;;;;;;;;;;18.50;66.70;;;;;;4998189;28;1529;-70
2023/04/27 06:37:09;;;;;;;;;;;18.50;66.70;;;;;;4999323;28;840;-71
2023/04/27 06:39:35;;;;;;;;;;;18.50;66.80;;;;;;4999176;28;1504;-71
2023/04/27 06:42:03;;;;;;;;;;;18.50;66.80;;;;;;4998336;28;1060;-72
2023/04/27 06:44:28;;;;;;;;;;;18.50;66.80;;;;;;4996593;28;1280;-72
2023/04/27 06:46:54;;;;;;;;;;;18.40;66.80;;;;;;4994609;28;840;-72
2023/04/27 06:49:20;;;;;;;;;;;18.50;66.90;;;;;;4992942;28;1977;-72
2023/04/27 06:51:45;;;;;;;;;;;18.40;66.80;;;;;;4996756;28;836;-72
2023/04/27 06:54:11;;;;;;;;;;;18.40;66.80;;;;;;4995729;28;1240;-72
2023/04/27 06:56:37;;;;;;;;;;;18.40;66.80;;;;;;5001174;28;1140;-73
2023/04/27 06:59:02;;;;;;;;;;;18.40;66.80;;;;;;4995915;28;828;-74
2023/04/27 07:01:28;;;;;;;;;;;18.40;66.90;;;;;;4990560;28;845;-74
2023/04/27 07:03:53;;;;;;;;;;;18.40;66.90;;;;;;5000171;28;1263;-74
2023/04/27 07:06:19;;;;;;;;;;;18.40;66.90;;;;;;4998429;28;876;-74
2023/04/27 07:08:44;;;;;;;;;;;18.40;66.90;;;;;;5002265;28;1907;-74
2023/04/27 07:11:09;;;;;;;;;;;18.40;66.90;;;;;;5001152;28;805;-76
2023/04/27 07:13:35;;;;;;;;;;;18.40;67.00;;;;;;4995213;28;1581;-76
2023/04/27 07:16:01;;;;;;;;;;;18.40;67.00;;;;;;4996021;28;921;-76
2023/04/27 07:18:29;;;;;;;;;;;18.40;67.00;;;;;;4980753;28;1303;-75
2023/04/27 07:20:56;;;;;;;;;;;18.40;67.00;;;;;;4986744;28;837;-75
2023/04/27 07:23:22;;;;;;;;;;;18.40;67.00;;;;;;4993702;28;1360;-74
2023/04/27 07:25:48;;;;;;;;;;;18.40;67.00;;;;;;4994559;28;886;-74
2023/04/27 07:28:13;;;;;;;;;;;18.40;67.10;;;;;;4993069;28;1971;-74
2023/04/27 07:30:40;;;;;;;;;;;18.40;67.10;;;;;;4993652;28;791;-74
2023/04/27 07:33:06;;;;;;;;;;;18.40;67.10;;;;;;4993290;28;1245;-75
2023/04/27 07:35:31;;;;;;;;;;;18.40;67.10;;;;;;4997149;28;1585;-74
2023/04/27 07:37:59;;;;;;;;;;;18.40;67.10;;;;;;4995537;28;827;-71
2023/04/27 07:40:25;;;;;;;;;;;18.40;67.10;;;;;;4969436;28;1454;-71
2023/04/27 07:42:50;;;;;;;;;;;18.40;67.10;;;;;;4998217;28;1318;-72
2023/04/27 07:45:19;;;;;;;;;;;18.40;67.20;;;;;;4996755;28;1273;-72
2023/04/27 07:47:45;;;;;;;;;;;18.40;67.20;;;;;;4992183;28;1991;-74
2023/04/27 07:50:13;;;;;;;;;;;18.30;67.10;;;;;;4991085;28;919;-74
2023/04/27 07:52:38;;;;;;;;;;;18.30;67.10;;;;;;4994494;28;861;-74
2023/04/27 07:55:04;;;;;;;;;;;18.40;67.20;;;;;;4994996;28;1368;-74
2023/04/27 07:57:30;;;;;;;;;;;18.30;67.20;;;;;;4994170;28;1167;-73
2023/04/27 07:59:55;;;;;;;;;;;18.30;67.20;;;;;;4975554;28;1341;-74
2023/04/27 08:02:21;;;;;;;;;;;18.30;67.20;;;;;;4996996;28;1269;-73
2023/04/27 08:04:47;;;;;;;;;;;18.30;67.20;;;;;;4995715;28;1281;-74
2023/04/27 08:07:12;;;;;;;;;;;18.30;67.30;;;;;;4995057;28;1906;-73
2023/04/27 08:09:38;;;;;;;;;;;18.30;67.20;;;;;;4997830;28;872;-74
2023/04/27 08:12:03;;;;;;;;;;;18.30;67.20;;;;;;4994732;28;1022;-74
2023/04/27 08:14:29;;;;;;;;;;;18.30;67.20;;;;;;4989083;28;1972;-74
2023/04/27 08:16:54;;;;;;;;;;;18.30;67.30;;;;;;4993263;28;1401;-74
2023/04/27 08:19:20;;;;;;;;;;;18.30;67.20;;;;;;4997157;28;1008;-73
2023/04/27 08:21:45;;;;;;;;;;;18.30;67.30;;;;;;4994565;28;1369;-74
2023/04/27 08:24:11;;;;;;;;;;;18.30;67.30;;;;;;4978274;28;1636;-74
2023/04/27 08:26:36;;;;;;;;;;;18.30;67.40;;;;;;4992276;28;881;-73
2023/04/27 08:29:02;;;;;;;;;;;18.30;67.40;;;;;;4989016;28;1890;-73
2023/04/27 08:31:27;;;;;;;;;;;18.30;68.10;;;;;;4992758;28;932;-71
2023/04/27 08:33:53;;;;;;;;;;;18.30;67.40;;;;;;4991588;28;1277;-71
2023/04/27 08:36:25;;;;;;;;;;;18.30;67.40;;;;;;4990406;28;839;-73
2023/04/27 08:38:50;;;;;;;;;;;18.30;67.40;;;;;;4994657;28;1196;-73
2023/04/27 08:41:20;;;;;;;;;;;18.30;67.40;;;;;;4995100;28;888;-72
2023/04/27 08:43:48;;;;;;;;;;;18.30;67.40;;;;;;4995334;28;1370;-73
2023/04/27 08:46:17;;;;;;;;;;;18.30;67.50;;;;;;4993646;28;1916;-74
2023/04/27 08:48:42;;;;;;;;;;;18.30;67.50;;;;;;4971160;28;1977;-74
2023/04/27 08:51:08;;;;;;;;;;;18.30;67.50;;;;;;4994049;28;2023;-74
2023/04/27 08:53:33;;;;;;;;;;;18.30;67.40;;;;;;4993545;28;1513;-74
2023/04/27 08:56:00;;;;;;;;;;;18.30;67.50;;;;;;4993493;28;1194;-74
2023/04/27 08:58:38;;;;;;;;;;;18.30;67.50;;;;;;4995358;28;820;-73
2023/04/27 09:01:05;;;;;;;;;;;18.30;67.50;;;;;;4980206;28;1484;-74
2023/04/27 09:03:31;;;;;;;;;;;18.30;68.20;;;;;;4977275;28;1285;-74
2023/04/27 09:05:56;;;;;;;;;;;18.20;67.50;;;;;;4992417;28;1454;-74
2023/04/27 09:08:21;;;;;;;;;;;18.20;67.40;;;;;;4994254;28;1906;-74
2023/04/27 09:10:48;;;;;;;;;;;18.30;67.50;;;;;;4988159;28;954;-74
2023/04/27 09:13:14;;;;;;;;;;;18.20;67.50;;;;;;4991464;28;1656;-74
2023/04/27 09:15:40;;;;;;;;;;;18.30;67.60;;;;;;4989681;28;845;-74
2023/04/27 09:18:05;;;;;;;;;;;18.30;67.60;;;;;;4975419;28;1155;-74
2023/04/27 09:20:31;;;;;;;;;;;18.20;67.50;;;;;;4993527;28;1130;-73
2023/04/27 09:22:57;;;;;;;;;;;18.30;67.50;;;;;;4992031;28;1261;-73
2023/04/27 09:25:25;;;;;;;;;;;18.20;67.50;;;;;;4992104;28;1385;-74
2023/04/27 09:27:50;;;;;;;;;;;18.20;67.50;;;;;;4995929;28;1971;-73
2023/04/27 09:30:16;;;;;;;;;;;18.20;67.50;;;;;;4993702;28;1017;-73
2023/04/27 09:33:08;;;;;;;;;;;18.20;67.50;;;;;;4987286;28;1455;-73
2023/04/27 09:35:33;;;;;;;;;;;18.20;67.50;;;;;;4987903;28;1289;-73
2023/04/27 09:37:59;;;;;;;;;;;18.20;67.50;;;;;;4993026;28;1070;-74
2023/04/27 09:40:26;;;;;;;;;;;18.20;67.50;;;;;;4982461;28;1324;-74
2023/04/27 09:42:56;;;;;;;;;;;18.20;67.50;;;;;;4990524;28;1322;-75
2023/04/27 09:45:22;;;;;;;;;;;18.20;67.50;;;;;;4991783;28;1193;-75
2023/04/27 09:47:47;;;;;;;;;;;18.20;67.50;;;;;;4996528;28;1906;-75
2023/04/27 09:50:13;;;;;;;;;;;18.20;67.50;;;;;;4995046;28;937;-75
2023/04/27 09:52:39;;;;;;;;;;;18.20;67.60;;;;;;4994933;28;836;-76
2023/04/27 09:55:05;;;;;;;;;;;18.20;67.60;;;;;;4996727;28;1315;-73
2023/04/27 09:57:31;;;;;;;;;;;18.20;67.60;;;;;;4974778;28;1206;-75
2023/04/27 10:00:00;;;;;;;;;;;18.20;67.50;;;;;;4997657;28;780;-73
2023/04/27 10:02:25;;;;;;;;;;;18.20;67.50;;;;;;4993572;28;803;-75
2023/04/27 10:05:18;;;;;;;;;;;18.20;67.60;;;;;;4994310;28;1228;-75
2023/04/27 10:07:43;;;;;;;;;;;18.20;67.60;;;;;;4996618;28;1907;-76
2023/04/27 10:10:15;;;;;;;;;;;18.20;67.60;;;;;;4994362;28;1046;-75
2023/04/27 10:12:40;;;;;;;;;;;18.20;67.60;;;;;;4995896;28;1313;-75
2023/04/27 10:15:12;;;;;;;;;;;18.20;67.60;;;;;;4998138;28;1336;-75
2023/04/27 10:17:37;;;;;;;;;;;18.20;67.60;;;;;;4995270;28;1003;-75
2023/04/27 10:20:07;;;;;;;;;;;18.20;67.60;;;;;;4992323;28;2136;-76
2023/04/27 10:22:37;;;;;;;;;;;18.20;67.70;;;;;;4997378;28;1335;-75
2023/04/27 10:25:11;;;;;;;;;;;18.10;67.60;;;;;;4994963;28;1269;-73
2023/04/27 10:27:37;;;;;;;;;;;18.20;67.70;;;;;;4994017;28;1970;-75
2023/04/27 10:30:07;;;;;;;;;;;18.20;67.70;;;;;;4979160;28;1544;-72
2023/04/27 10:32:33;;;;;;;;;;;18.20;67.60;;;;;;4993962;28;1111;-74
2023/04/27 10:35:02;;;;;;;;;;;18.20;67.60;;;;;;5000006;28;1285;-73
2023/04/27 10:37:38;;;;;;;;;;;18.20;67.70;;;;;;4994364;28;1177;-74
2023/04/27 10:40:05;;;;;;;;;;;18.20;67.70;;;;;;4979220;28;1198;-73
2023/04/27 10:42:31;;;;;;;;;;;18.20;67.70;;;;;;4999606;28;1044;-73
2023/04/27 10:44:57;;;;;;;;;;;18.20;67.70;;;;;;5006676;28;1255;-73
2023/04/27 10:47:23;;;;;;;;;;;18.10;67.70;;;;;;5002288;28;1930;-73
2023/04/27 10:49:52;;;;;;;;;;;18.20;67.70;;;;;;4998324;28;829;-72
2023/04/27 10:52:18;;;;;;;;;;;18.10;67.70;;;;;;5000044;28;883;-72
2023/04/27 10:54:46;;;;;;;;;;;18.20;67.80;;;;;;4996933;28;1236;-73
2023/04/27 10:57:12;;;;;;;;;;;18.20;67.80;;;;;;4997983;28;805;-72
2023/04/27 10:59:54;;;;;;;;;;;18.20;67.80;;;;;;4994318;28;831;-73
2023/04/27 11:02:26;;;;;;;;;;;18.10;67.80;;;;;;4995766;28;1713;-73
2023/04/27 11:04:51;;;;;;;;;;;18.20;67.90;;;;;;4994418;28;1354;-73
2023/04/27 11:07:26;;;;;;;;;;;18.10;67.80;;;;;;4995781;28;1911;-73
2023/04/27 11:09:52;;;;;;;;;;;18.10;67.80;;;;;;4992840;28;828;-73
2023/04/27 11:12:17;;;;;;;;;;;18.10;67.80;;;;;;4993674;28;828;-72
2023/04/27 11:14:43;;;;;;;;;;;18.10;67.80;;;;;;4993628;28;1324;-73
2023/04/27 11:17:08;;;;;;;;;;;18.10;67.80;;;;;;4999204;28;859;-73
2023/04/27 11:19:43;;;;;;;;;;;18.10;67.80;;;;;;4978455;28;1219;-73
2023/04/27 11:22:08;;;;;;;;;;;18.10;67.80;;;;;;4992865;28;1452;-73
2023/04/27 11:24:34;;;;;;;;;;;18.10;67.90;;;;;;4993080;28;1320;-73
2023/04/27 11:26:59;;;;;;;;;;;18.10;67.80;;;;;;4998569;28;911;-73
2023/04/27 11:29:25;;;;;;;;;;;18.10;67.80;;;;;;4994805;28;1886;-73
2023/04/27 11:31:51;;;;;;;;;;;18.10;67.80;;;;;;4995751;28;1058;-72
2023/04/27 11:34:17;;;;;;;;;;;18.10;67.90;;;;;;5001352;28;1426;-73
2023/04/27 11:36:42;;;;;;;;;;;18.10;67.90;;;;;;4994593;28;812;-72
2023/04/27 11:39:08;;;;;;;;;;;18.10;67.90;;;;;;4993400;28;882;-72
2023/04/27 11:41:34;;;;;;;;;;;18.10;67.90;;;;;;4995873;28;1337;-72
2023/04/27 11:44:03;;;;;;;;;;;18.10;68.00;;;;;;4991090;28;1364;-72
2023/04/27 11:46:29;;;;;;;;;;;18.10;67.90;;;;;;4986199;28;1390;-72
2023/04/27 11:49:00;;;;;;;;;;;18.10;67.90;;;;;;4997909;28;1962;-72
2023/04/27 11:51:25;;;;;;;;;;;18.10;68.00;;;;;;4992487;28;820;-72
2023/04/27 11:53:51;;;;;;;;;;;18.10;67.90;;;;;;4991701;28;1834;-72
2023/04/27 11:56:17;;;;;;;;;;;18.10;68.00;;;;;;4989001;28;1450;-72
2023/04/27 11:58:43;;;;;;;;;;;18.10;68.00;;;;;;5000225;28;1513;-71
2023/04/27 12:01:09;;;;;;;;;;;18.10;68.00;;;;;;4995055;28;903;-72
2023/04/27 12:03:35;;;;;;;;;;;18.10;68.00;;;;;;4995093;28;1352;-72
2023/04/27 12:06:00;;;;;;;;;;;18.10;68.00;;;;;;4996461;28;865;-71
2023/04/27 12:08:26;;;;;;;;;;;18.10;68.00;;;;;;4996266;28;1906;-73
2023/04/27 12:10:52;;;;;;;;;;;18.10;68.00;;;;;;4995414;28;873;-72
2023/04/27 12:13:17;;;;;;;;;;;18.10;68.00;;;;;;4995698;28;1285;-73
2023/04/27 12:15:42;;;;;;;;;;;18.10;68.00;;;;;;4996538;28;1069;-71
2023/04/27 12:18:08;;;;;;;;;;;18.10;68.00;;;;;;4993251;28;911;-72
2023/04/27 12:20:33;;;;;;;;;;;18.10;68.00;;;;;;4995044;28;809;-73
2023/04/27 12:22:59;;;;;;;;;;;18.10;68.00;;;;;;4998174;28;899;-72
2023/04/27 12:25:25;;;;;;;;;;;18.10;68.10;;;;;;4992980;28;1319;-72
2023/04/27 12:27:50;;;;;;;;;;;18.10;68.10;;;;;;4994627;28;1898;-70
2023/04/27 12:30:16;;;;;;;;;;;18.10;68.10;;;;;;4991834;28;879;-73
2023/04/27 12:32:41;;;;;;;;;;;18.10;68.10;;;;;;4999062;28;871;-72
2023/04/27 12:35:07;;;;;;;;;;;18.10;68.10;;;;;;4995898;28;1463;-72
2023/04/27 12:37:33;;;;;;;;;;;18.10;68.10;;;;;;4990804;28;2117;-72
2023/04/27 12:39:58;;;;;;;;;;;18.10;68.10;;;;;;4992893;28;1419;-72
2023/04/27 12:42:24;;;;;;;;;;;18.10;68.10;;;;;;4989031;28;1957;-73
2023/04/27 12:44:50;;;;;;;;;;;18.00;68.00;;;;;;4989859;28;1384;-72
2023/04/27 12:47:16;;;;;;;;;;;18.10;68.10;;;;;;4992194;28;1969;-73
2023/04/27 12:49:41;;;;;;;;;;;18.00;68.00;;;;;;4993911;28;1381;-72
2023/04/27 12:52:07;;;;;;;;;;;18.00;68.00;;;;;;4996871;28;1488;-72
2023/04/27 12:54:32;;;;;;;;;;;18.10;68.20;;;;;;4998587;28;1409;-72
2023/04/27 12:57:01;;;;;;;;;;;18.00;68.00;;;;;;4994417;28;883;-72
2023/04/27 12:59:27;;;;;;;;;;;18.00;68.00;;;;;;4995765;28;868;-72
2023/04/27 13:01:52;;;;;;;;;;;18.00;68.10;;;;;;4994633;28;876;-72
2023/04/27 13:04:18;;;;;;;;;;;18.00;68.10;;;;;;4993653;28;1363;-72
2023/04/27 13:06:44;;;;;;;;;;;18.00;68.10;;;;;;4990893;28;951;-72
2023/04/27 13:09:10;;;;;;;;;;;18.10;68.20;;;;;;4995847;28;1918;-72
2023/04/27 13:11:36;;;;;;;;;;;18.00;68.10;;;;;;4995451;28;873;-72
2023/04/27 13:14:03;;;;;;;;;;;18.00;68.10;;;;;;4998209;28;1375;-73
2023/04/27 13:16:29;;;;;;;;;;;18.00;68.10;;;;;;4993935;28;872;-72
2023/04/27 13:18:55;;;;;;;;;;;18.00;68.10;;;;;;4989569;28;824;-72
2023/04/27 13:21:20;;;;;;;;;;;18.00;68.10;;;;;;4993448;28;897;-73
2023/04/27 13:23:46;;;;;;;;;;;18.00;68.10;;;;;;4992456;28;1262;-73
2023/04/27 13:26:12;;;;;;;;;;;18.00;68.10;;;;;;4988520;28;831;-72
2023/04/27 13:28:38;;;;;;;;;;;18.00;68.10;;;;;;4987461;28;1906;-72
2023/04/27 13:31:03;;;;;;;;;;;18.00;68.10;;;;;;5001055;28;811;-72
2023/04/27 13:33:29;;;;;;;;;;;18.00;68.10;;;;;;5000126;28;1301;-72
2023/04/27 13:35:54;;;;;;;;;;;18.00;68.10;;;;;;4993765;28;798;-73
2023/04/27 13:38:20;;;;;;;;;;;18.00;68.10;;;;;;4997803;28;824;-71
2023/04/27 13:40:45;;;;;;;;;;;18.00;68.10;;;;;;4998678;28;839;-71
2023/04/27 13:43:11;;;;;;;;;;;18.00;68.20;;;;;;4994721;28;1322;-71
2023/04/27 13:45:38;;;;;;;;;;;18.00;68.10;;;;;;4996280;28;943;-71
2023/04/27 13:48:04;;;;;;;;;;;18.00;68.20;;;;;;4995792;28;1902;-71
2023/04/27 13:50:29;;;;;;;;;;;18.00;68.20;;;;;;4994248;28;1411;-71
2023/04/27 13:52:55;;;;;;;;;;;18.00;68.10;;;;;;4981115;28;1300;-71
2023/04/27 13:55:20;;;;;;;;;;;18.00;68.20;;;;;;4997702;28;1281;-71
2023/04/27 13:57:46;;;;;;;;;;;18.00;68.20;;;;;;4996167;28;994;-71
2023/04/27 14:00:11;;;;;;;;;;;18.00;68.10;;;;;;4998634;28;856;-72
2023/04/27 14:02:37;;;;;;;;;;;18.00;68.20;;;;;;4997201;28;912;-71
2023/04/27 14:05:06;;;;;;;;;;;18.00;68.20;;;;;;4994016;28;1628;-72
2023/04/27 14:07:33;;;;;;;;;;;18.00;68.20;;;;;;4990089;28;1975;-71
2023/04/27 14:09:58;;;;;;;;;;;18.00;68.20;;;;;;4992425;28;832;-71
2023/04/27 14:12:24;;;;;;;;;;;18.00;68.20;;;;;;4981715;28;1376;-71
2023/04/27 14:14:49;;;;;;;;;;;18.00;68.20;;;;;;4994789;28;1261;-72
2023/04/27 14:17:15;;;;;;;;;;;18.00;68.20;;;;;;4994898;28;801;-72
2023/04/27 14:19:41;;;;;;;;;;;18.00;68.20;;;;;;4999145;28;950;-72
2023/04/27 14:22:08;;;;;;;;;;;18.00;68.20;;;;;;5000506;28;809;-71
2023/04/27 14:24:33;;;;;;;;;;;18.00;68.20;;;;;;4993337;28;1230;-71
2023/04/27 14:26:59;;;;;;;;;;;18.00;68.20;;;;;;4997532;28;943;-71